Time;durP1;ratioP1;P1;durP2;ratioP2;P2;SDS_P1;SDS_P2;PMS_P1;PMS_P2;Temp;Humidity;BMP_temperature;BMP_pressure;BME280_temperature;BME280_humidity;BME280_pressure;Samples;Min_cycle;Max_cycle;Signal;HPM_P1;HPM_P2
2023/06/03 00:00:25;;;;;;;8.45;5.40;;;;;;;;;;5092533;28;20048;-87
2023/06/03 00:02:53;;;;;;;9.75;5.72;;;;;;;;;;5092289;28;20073;-87
2023/06/03 00:05:21;;;;;;;14.23;5.88;;;;;;;;;;5093468;28;20063;-86
2023/06/03 00:07:48;;;;;;;14.95;6.35;;;;;;;;;;5092693;28;20117;-85
2023/06/03 00:10:16;;;;;;;10.68;5.85;;;;;;;;;;5093020;28;20048;-86
2023/06/03 00:12:45;;;;;;;14.23;6.22;;;;;;;;;;5093014;28;20056;-86
2023/06/03 00:15:12;;;;;;;16.90;6.25;;;;;;;;;;5093900;28;20044;-87
2023/06/03 00:17:40;;;;;;;11.48;6.43;;;;;;;;;;5092554;28;20048;-85
2023/06/03 00:20:09;;;;;;;7.43;5.63;;;;;;;;;;5094172;28;20142;-85
2023/06/03 00:22:37;;;;;;;15.90;6.00;;;;;;;;;;5092636;28;20044;-86
2023/06/03 00:25:08;;;;;;;11.27;5.90;;;;;;;;;;5092453;28;20121;-85
2023/06/03 00:27:36;;;;;;;9.55;5.32;;;;;;;;;;5093270;28;20086;-86
2023/06/03 00:30:04;;;;;;;8.55;5.90;;;;;;;;;;5092346;28;20048;-86
2023/06/03 00:32:31;;;;;;;10.63;6.50;;;;;;;;;;5092843;28;20109;-86
2023/06/03 00:34:58;;;;;;;8.20;6.40;;;;;;;;;;5092141;28;20458;-85
2023/06/03 00:37:26;;;;;;;8.93;6.18;;;;;;;;;;5091839;28;20094;-86
2023/06/03 00:39:53;;;;;;;10.85;6.32;;;;;;;;;;5092116;28;20436;-86
2023/06/03 00:42:20;;;;;;;8.05;5.70;;;;;;;;;;5091916;28;20142;-86
2023/06/03 00:44:47;;;;;;;10.68;6.50;;;;;;;;;;5092865;28;20083;-87
2023/06/03 00:47:17;;;;;;;11.68;6.30;;;;;;;;;;5091936;28;20056;-85
2023/06/03 00:49:44;;;;;;;12.50;6.25;;;;;;;;;;5092633;28;20097;-85
2023/06/03 00:52:14;;;;;;;13.05;6.18;;;;;;;;;;5091719;28;20154;-85
2023/06/03 00:54:41;;;;;;;14.60;6.03;;;;;;;;;;5104945;28;20051;-85
2023/06/03 00:57:10;;;;;;;12.02;6.15;;;;;;;;;;5099501;28;20060;-86
2023/06/03 00:59:37;;;;;;;10.85;6.00;;;;;;;;;;5094690;28;20055;-85
2023/06/03 01:02:04;;;;;;;9.52;5.53;;;;;;;;;;5095366;28;20052;-86
2023/06/03 01:04:32;;;;;;;11.13;6.38;;;;;;;;;;5095461;28;20105;-85
2023/06/03 01:07:07;;;;;;;9.80;6.30;;;;;;;;;;5095438;28;20067;-85
2023/06/03 01:09:53;;;;;;;8.77;5.95;;;;;;;;;;5094664;28;20048;-85
2023/06/03 01:12:25;;;;;;;12.40;6.07;;;;;;;;;;5094982;28;20203;-85
2023/06/03 01:14:57;;;;;;;8.93;5.95;;;;;;;;;;5095919;28;20393;-86
2023/06/03 01:17:27;;;;;;;15.07;6.13;;;;;;;;;;5094935;28;20052;-86
2023/06/03 01:19:56;;;;;;;12.30;6.03;;;;;;;;;;5095069;28;20048;-85
2023/06/03 01:22:28;;;;;;;9.98;5.70;;;;;;;;;;5094745;28;20044;-85
2023/06/03 01:25:03;;;;;;;13.00;6.25;;;;;;;;;;5094995;28;20075;-86
2023/06/03 01:27:31;;;;;;;8.82;6.28;;;;;;;;;;5094764;28;20051;-85
2023/06/03 01:29:59;;;;;;;9.32;5.70;;;;;;;;;;5094494;28;20125;-86
2023/06/03 01:32:29;;;;;;;8.02;6.00;;;;;;;;;;5094211;28;20059;-85
2023/06/03 01:34:56;;;;;;;14.77;6.75;;;;;;;;;;5094752;28;20051;-85
2023/06/03 01:37:23;;;;;;;12.38;5.85;;;;;;;;;;5094673;28;20093;-85
2023/06/03 01:39:51;;;;;;;11.50;6.25;;;;;;;;;;5094687;28;20052;-85
2023/06/03 01:42:18;;;;;;;10.02;6.45;;;;;;;;;;5094639;28;20048;-85
2023/06/03 01:44:46;;;;;;;10.38;6.25;;;;;;;;;;5094386;28;20048;-85
2023/06/03 01:47:13;;;;;;;7.43;6.07;;;;;;;;;;5094474;28;20047;-85
2023/06/03 01:49:40;;;;;;;12.45;6.78;;;;;;;;;;5094207;28;20044;-86
2023/06/03 01:52:08;;;;;;;10.40;6.20;;;;;;;;;;5094362;28;20044;-86
2023/06/03 01:54:35;;;;;;;9.10;6.13;;;;;;;;;;5094264;28;20109;-86
2023/06/03 01:57:02;;;;;;;12.05;6.45;;;;;;;;;;5094321;28;20044;-85
2023/06/03 01:59:30;;;;;;;10.88;6.28;;;;;;;;;;5094183;28;20044;-85
2023/06/03 02:01:57;;;;;;;9.98;5.78;;;;;;;;;;5094981;28;20048;-85
2023/06/03 02:04:26;;;;;;;9.93;6.20;;;;;;;;;;5094047;28;20075;-85
2023/06/03 02:06:53;;;;;;;10.27;5.97;;;;;;;;;;5094100;28;20109;-85
2023/06/03 02:09:21;;;;;;;8.85;5.68;;;;;;;;;;5097647;28;20058;-86
2023/06/03 02:11:48;;;;;;;7.68;5.72;;;;;;;;;;5110130;28;20058;-86
2023/06/03 02:14:16;;;;;;;10.30;5.22;;;;;;;;;;5094202;28;20134;-85
2023/06/03 02:16:43;;;;;;;8.82;5.72;;;;;;;;;;5094763;28;20047;-86
2023/06/03 02:19:11;;;;;;;9.25;5.60;;;;;;;;;;5093759;28;20056;-85
2023/06/03 02:21:39;;;;;;;11.10;6.10;;;;;;;;;;5093476;28;20093;-86
2023/06/03 02:24:08;;;;;;;8.55;6.05;;;;;;;;;;5093556;28;20532;-85
2023/06/03 02:26:35;;;;;;;7.38;5.40;;;;;;;;;;5093566;28;20512;-84
2023/06/03 02:29:03;;;;;;;7.63;5.72;;;;;;;;;;5093322;28;20497;-85
2023/06/03 02:31:30;;;;;;;8.65;5.57;;;;;;;;;;5092965;28;20072;-85
2023/06/03 02:33:57;;;;;;;8.73;5.90;;;;;;;;;;5093088;28;20048;-85
2023/06/03 02:36:25;;;;;;;8.43;5.80;;;;;;;;;;5093359;28;20048;-85
2023/06/03 02:38:52;;;;;;;8.45;5.47;;;;;;;;;;5093301;28;20646;-86
2023/06/03 02:41:19;;;;;;;11.20;5.90;;;;;;;;;;5093042;28;20097;-85
2023/06/03 02:43:46;;;;;;;8.80;5.88;;;;;;;;;;5093352;28;20048;-86
2023/06/03 02:46:14;;;;;;;9.38;5.07;;;;;;;;;;5093353;28;20365;-86
2023/06/03 02:48:41;;;;;;;11.07;6.85;;;;;;;;;;5092908;28;20450;-85
2023/06/03 02:51:08;;;;;;;10.40;5.63;;;;;;;;;;5093057;28;20048;-85
2023/06/03 02:53:36;;;;;;;10.50;6.75;;;;;;;;;;5092958;28;20059;-85
2023/06/03 02:56:04;;;;;;;11.82;6.05;;;;;;;;;;5092957;28;20069;-85
2023/06/03 02:58:31;;;;;;;10.45;5.63;;;;;;;;;;5093035;28;20052;-85
2023/06/03 03:00:58;;;;;;;6.53;5.82;;;;;;;;;;5092787;28;20071;-85
2023/06/03 03:03:26;;;;;;;7.82;5.35;;;;;;;;;;5092856;28;20404;-86
2023/06/03 03:05:54;;;;;;;10.57;5.57;;;;;;;;;;5092977;28;20055;-86
2023/06/03 03:08:25;;;;;;;11.48;5.85;;;;;;;;;;5092471;28;20070;-86
2023/06/03 03:10:52;;;;;;;10.02;6.25;;;;;;;;;;5092530;28;20071;-86
2023/06/03 03:13:19;;;;;;;8.05;5.47;;;;;;;;;;5092828;28;20064;-85
2023/06/03 03:15:47;;;;;;;11.20;5.90;;;;;;;;;;5092391;28;20063;-85
2023/06/03 03:18:15;;;;;;;10.15;6.07;;;;;;;;;;5092593;28;20048;-85
2023/06/03 03:20:42;;;;;;;7.38;5.47;;;;;;;;;;5091643;28;20052;-85
2023/06/03 03:23:13;;;;;;;11.18;5.85;;;;;;;;;;5092470;28;20476;-84
2023/06/03 03:25:40;;;;;;;12.07;5.47;;;;;;;;;;5102633;28;20044;-85
2023/06/03 03:28:07;;;;;;;10.32;5.25;;;;;;;;;;5101931;28;20052;-85
2023/06/03 03:30:37;;;;;;;8.98;5.22;;;;;;;;;;5091886;28;20109;-85
2023/06/03 03:33:05;;;;;;;10.05;5.78;;;;;;;;;;5092450;28;20454;-85
2023/06/03 03:35:39;;;;;;;9.38;5.13;;;;;;;;;;5092257;28;20101;-85
2023/06/03 03:38:08;;;;;;;11.77;5.68;;;;;;;;;;5092417;28;20051;-85
2023/06/03 03:40:38;;;;;;;12.15;5.60;;;;;;;;;;5092194;28;20071;-85
2023/06/03 03:43:09;;;;;;;7.10;5.30;;;;;;;;;;5092262;28;20082;-85
2023/06/03 03:45:37;;;;;;;7.82;4.78;;;;;;;;;;5092258;28;20484;-85
2023/06/03 03:48:06;;;;;;;10.07;5.68;;;;;;;;;;5092211;28;20055;-85
2023/06/03 03:50:33;;;;;;;8.55;5.82;;;;;;;;;;5091879;28;20048;-85
2023/06/03 03:53:02;;;;;;;9.05;5.93;;;;;;;;;;5093092;28;20170;-85
2023/06/03 03:55:29;;;;;;;8.85;6.68;;;;;;;;;;5091733;28;20654;-84
2023/06/03 03:58:08;;;;;;;10.85;5.38;;;;;;;;;;5092595;28;20048;-86
2023/06/03 04:00:35;;;;;;;9.10;5.57;;;;;;;;;;5091922;28;20110;-85
2023/06/03 04:03:04;;;;;;;10.88;6.35;;;;;;;;;;5092091;28;20455;-85
2023/06/03 04:05:31;;;;;;;11.07;5.60;;;;;;;;;;5092103;28;20051;-85
2023/06/03 04:07:58;;;;;;;7.68;5.32;;;;;;;;;;5091901;28;20052;-86
2023/06/03 04:10:26;;;;;;;6.78;5.47;;;;;;;;;;5091828;28;20052;-85
2023/06/03 04:12:53;;;;;;;7.60;4.85;;;;;;;;;;5091963;28;20067;-86
2023/06/03 04:15:30;;;;;;;9.30;5.50;;;;;;;;;;5091963;28;20072;-86
2023/06/03 04:17:57;;;;;;;8.32;5.20;;;;;;;;;;5092096;28;20044;-86
2023/06/03 04:20:34;;;;;;;11.00;5.88;;;;;;;;;;5091852;28;20142;-85
2023/06/03 04:23:04;;;;;;;7.88;5.88;;;;;;;;;;5092174;28;20109;-86
2023/06/03 04:25:33;;;;;;;9.52;6.25;;;;;;;;;;5092044;28;20117;-85
2023/06/03 04:28:00;;;;;;;7.25;6.13;;;;;;;;;;5092142;28;20100;-86
2023/06/03 04:30:27;;;;;;;9.77;7.18;;;;;;;;;;5091364;28;20098;-86
2023/06/03 04:32:55;;;;;;;13.63;7.50;;;;;;;;;;5094533;28;20048;-86
2023/06/03 04:35:23;;;;;;;14.00;5.88;;;;;;;;;;5095573;28;20044;-86
2023/06/03 04:37:51;;;;;;;7.43;5.78;;;;;;;;;;5097176;28;20055;-86
2023/06/03 04:40:18;;;;;;;8.27;5.50;;;;;;;;;;5097384;28;20063;-86
2023/06/03 04:42:46;;;;;;;6.60;5.30;;;;;;;;;;5112960;28;20055;-86
2023/06/03 04:45:14;;;;;;;7.95;5.93;;;;;;;;;;5094513;28;20494;-85
2023/06/03 04:47:42;;;;;;;7.93;4.88;;;;;;;;;;5094286;28;20059;-85
2023/06/03 04:50:10;;;;;;;7.22;4.53;;;;;;;;;;5095156;28;20050;-85
2023/06/03 04:52:37;;;;;;;5.05;4.20;;;;;;;;;;5095617;28;20044;-86
2023/06/03 04:55:04;;;;;;;6.55;4.45;;;;;;;;;;5095346;28;20048;-86
2023/06/03 04:57:31;;;;;;;7.68;4.85;;;;;;;;;;5095212;28;20052;-86
2023/06/03 04:59:58;;;;;;;7.15;4.22;;;;;;;;;;5095491;28;20076;-85
2023/06/03 05:02:29;;;;;;;5.25;3.90;;;;;;;;;;5095460;28;20048;-86
2023/06/03 05:04:57;;;;;;;5.10;3.85;;;;;;;;;;5095395;28;20059;-86
2023/06/03 05:07:26;;;;;;;3.65;3.30;;;;;;;;;;5096439;28;20051;-86
2023/06/03 05:09:53;;;;;;;5.95;3.42;;;;;;;;;;5095022;28;20074;-86
2023/06/03 05:12:21;;;;;;;4.00;3.60;;;;;;;;;;5095017;28;20079;-86
2023/06/03 05:14:48;;;;;;;4.38;2.95;;;;;;;;;;5095011;28;20123;-86
2023/06/03 05:17:16;;;;;;;5.35;2.80;;;;;;;;;;5095538;28;20115;-85
2023/06/03 05:19:43;;;;;;;5.15;2.88;;;;;;;;;;5094986;28;20052;-86
2023/06/03 05:22:10;;;;;;;9.52;2.45;;;;;;;;;;5095090;28;20072;-87
2023/06/03 05:24:38;;;;;;;11.20;2.80;;;;;;;;;;5094907;28;20059;-86
2023/06/03 05:27:05;;;;;;;7.38;2.40;;;;;;;;;;5094838;28;20040;-87
2023/06/03 05:29:32;;;;;;;13.52;3.10;;;;;;;;;;5094589;28;20111;-86
2023/06/03 05:31:59;;;;;;;8.18;2.35;;;;;;;;;;5094379;28;20067;-86
2023/06/03 05:34:27;;;;;;;7.95;2.70;;;;;;;;;;5094413;28;20051;-84
2023/06/03 05:36:54;;;;;;;7.97;2.30;;;;;;;;;;5095515;28;20051;-86
2023/06/03 05:39:21;;;;;;;5.28;2.28;;;;;;;;;;5094405;28;20048;-86
2023/06/03 05:41:48;;;;;;;7.38;2.30;;;;;;;;;;5095389;28;20051;-86
2023/06/03 05:44:15;;;;;;;10.00;2.58;;;;;;;;;;5093429;28;20044;-87
2023/06/03 05:46:43;;;;;;;6.38;2.20;;;;;;;;;;5094206;28;20052;-86
2023/06/03 05:49:10;;;;;;;7.35;2.45;;;;;;;;;;5095286;28;20564;-86
2023/06/03 05:51:37;;;;;;;6.15;2.83;;;;;;;;;;5095101;28;20136;-86
2023/06/03 05:54:05;;;;;;;6.03;2.28;;;;;;;;;;5095595;28;20048;-86
2023/06/03 05:56:32;;;;;;;6.68;1.90;;;;;;;;;;5101122;28;20059;-85
2023/06/03 05:58:59;;;;;;;3.72;2.17;;;;;;;;;;5107285;28;20062;-85
2023/06/03 06:01:27;;;;;;;3.25;1.50;;;;;;;;;;5094103;28;20052;-87
2023/06/03 06:03:54;;;;;;;4.40;1.70;;;;;;;;;;5095315;28;20100;-86
2023/06/03 06:06:25;;;;;;;1.95;1.10;;;;;;;;;;5095147;28;20055;-87
2023/06/03 06:08:52;;;;;;;2.35;1.17;;;;;;;;;;5094460;28;20555;-87
2023/06/03 06:11:20;;;;;;;1.98;0.80;;;;;;;;;;5095121;28;20044;-86
2023/06/03 06:13:47;;;;;;;2.90;1.15;;;;;;;;;;5094286;28;20044;-87
2023/06/03 06:16:15;;;;;;;3.13;1.27;;;;;;;;;;5094326;28;20055;-87
2023/06/03 06:18:42;;;;;;;3.80;1.30;;;;;;;;;;5094122;28;20087;-86
2023/06/03 06:21:10;;;;;;;2.45;1.17;;;;;;;;;;5094968;28;20491;-85
2023/06/03 06:23:39;;;;;;;6.88;1.25;;;;;;;;;;5093938;28;20044;-87
2023/06/03 06:26:07;;;;;;;2.05;1.30;;;;;;;;;;5093916;28;20408;-86
2023/06/03 06:28:34;;;;;;;2.83;1.38;;;;;;;;;;5094886;28;20082;-85
2023/06/03 06:31:04;;;;;;;1.60;1.13;;;;;;;;;;5093339;28;20103;-85
2023/06/03 06:33:34;;;;;;;2.72;1.75;;;;;;;;;;5093461;28;20503;-85
2023/06/03 06:36:03;;;;;;;4.18;1.80;;;;;;;;;;5093716;28;20052;-86
2023/06/03 06:38:35;;;;;;;11.25;1.30;;;;;;;;;;5093259;28;20084;-88
2023/06/03 06:41:04;;;;;;;6.13;1.58;;;;;;;;;;5093402;28;20456;-84
2023/06/03 06:43:33;;;;;;;5.18;1.35;;;;;;;;;;5093039;28;20353;-86
2023/06/03 06:46:01;;;;;;;5.07;1.40;;;;;;;;;;5093087;28;20044;-86
2023/06/03 06:48:28;;;;;;;3.55;1.70;;;;;;;;;;5094293;28;20052;-86
2023/06/03 06:50:59;;;;;;;4.93;1.60;;;;;;;;;;5093988;28;20190;-87
2023/06/03 06:53:27;;;;;;;3.10;1.42;;;;;;;;;;5094643;28;20048;-85
2023/06/03 06:56:01;;;;;;;3.40;1.40;;;;;;;;;;5094032;28;20052;-86
2023/06/03 06:58:33;;;;;;;3.47;1.40;;;;;;;;;;5094117;28;20052;-86
2023/06/03 07:01:04;;;;;;;2.35;1.30;;;;;;;;;;5093184;28;20130;-86
2023/06/03 07:03:33;;;;;;;2.50;1.40;;;;;;;;;;5093057;28;20079;-88
2023/06/03 07:06:01;;;;;;;9.68;1.65;;;;;;;;;;5094439;28;20048;-87
2023/06/03 07:08:28;;;;;;;2.72;1.42;;;;;;;;;;5094677;28;20105;-87
2023/06/03 07:10:59;;;;;;;2.75;1.40;;;;;;;;;;5096308;28;20052;-93
2023/06/03 07:13:27;;;;;;;3.13;1.42;;;;;;;;;;5117913;28;20055;-88
2023/06/03 07:15:55;;;;;;;3.00;1.50;;;;;;;;;;5114441;28;20071;-86
2023/06/03 07:18:25;;;;;;;4.40;1.20;;;;;;;;;;5113105;28;20051;-88
2023/06/03 07:20:52;;;;;;;4.80;1.25;;;;;;;;;;5112346;28;20470;-89
2023/06/03 07:23:21;;;;;;;3.35;1.48;;;;;;;;;;5113163;28;20043;-87
2023/06/03 07:25:49;;;;;;;4.38;1.30;;;;;;;;;;5113147;28;20403;-87
2023/06/03 07:28:32;;;;;;;3.22;1.40;;;;;;;;;;5113324;28;20058;-91
2023/06/03 07:31:03;;;;;;;1.90;1.58;;;;;;;;;;5112791;28;20072;-88
2023/06/03 07:33:45;;;;;;;3.80;1.10;;;;;;;;;;5096946;28;20533;-87
2023/06/03 07:36:13;;;;;;;3.45;1.30;;;;;;;;;;5113089;28;20082;-84
2023/06/03 07:38:56;;;;;;;4.95;1.42;;;;;;;;;;5113029;28;20063;-92
2023/06/03 07:41:33;;;;;;;3.05;1.45;;;;;;;;;;5113131;28;20067;-84
2023/06/03 07:44:00;;;;;;;3.03;1.40;;;;;;;;;;5113056;28;20074;-85
2023/06/03 07:46:35;;;;;;;4.60;1.55;;;;;;;;;;5112930;28;20043;-89
2023/06/03 07:49:04;;;;;;;4.53;1.27;;;;;;;;;;5112791;28;20043;-84
2023/06/03 07:51:31;;;;;;;1.95;1.30;;;;;;;;;;5113511;28;20135;-85
2023/06/03 07:53:59;;;;;;;3.40;1.50;;;;;;;;;;5113487;28;20511;-83
2023/06/03 07:56:26;;;;;;;1.30;1.20;;;;;;;;;;5112887;28;20453;-87
2023/06/03 07:58:54;;;;;;;2.58;1.40;;;;;;;;;;5112773;28;20058;-87
2023/06/03 08:01:25;;;;;;;3.42;1.25;;;;;;;;;;5112531;28;20075;-84
2023/06/03 08:03:53;;;;;;;4.80;1.90;;;;;;;;;;5112775;28;20054;-86
2023/06/03 08:06:23;;;;;;;4.28;1.25;;;;;;;;;;5112722;28;20104;-86
2023/06/03 08:08:52;;;;;;;3.15;1.50;;;;;;;;;;5118015;28;20043;-85
2023/06/03 08:11:20;;;;;;;2.80;1.60;;;;;;;;;;5116344;28;20499;-85
2023/06/03 08:13:48;;;;;;;1.30;1.20;;;;;;;;;;5116928;28;20082;-87
2023/06/03 08:16:17;;;;;;;2.85;1.48;;;;;;;;;;5117292;28;20403;-85
2023/06/03 08:18:44;;;;;;;3.10;1.35;;;;;;;;;;5117020;28;20062;-85
2023/06/03 08:21:12;;;;;;;4.25;1.00;;;;;;;;;;5119218;28;20147;-89
2023/06/03 08:23:42;;;;;;;4.97;1.00;;;;;;;;;;5117541;28;20057;-88
2023/06/03 08:26:11;;;;;;;4.45;1.30;;;;;;;;;;5117280;28;20552;-89
2023/06/03 08:28:39;;;;;;;1.85;1.15;;;;;;;;;;5130927;28;20048;-88
2023/06/03 08:31:06;;;;;;;2.55;1.30;;;;;;;;;;5125754;28;20116;-89
2023/06/03 08:33:34;;;;;;;3.15;1.30;;;;;;;;;;5117424;28;20050;-87
2023/06/03 08:36:02;;;;;;;8.70;1.88;;;;;;;;;;5118718;28;20055;-89
2023/06/03 08:38:29;;;;;;;2.65;1.40;;;;;;;;;;5116985;28;20040;-88
2023/06/03 08:40:57;;;;;;;3.92;1.40;;;;;;;;;;5117173;28;20488;-94
2023/06/03 08:43:27;;;;;;;4.03;1.20;;;;;;;;;;5117049;28;20048;-90
2023/06/03 08:46:13;;;;;;;3.85;1.45;;;;;;;;;;5116735;28;20074;-92
2023/06/03 08:48:49;;;;;;;4.13;1.30;;;;;;;;;;5119200;28;20434;-93
2023/06/03 08:51:21;;;;;;;2.45;1.00;;;;;;;;;;5116428;28;20047;-92
2023/06/03 08:53:49;;;;;;;3.55;1.23;;;;;;;;;;5117041;28;20050;-89
2023/06/03 08:56:17;;;;;;;5.72;1.27;;;;;;;;;;5116670;28;20152;-87
2023/06/03 08:58:55;;;;;;;6.32;1.80;;;;;;;;;;5116412;28;20079;-87
2023/06/03 09:01:27;;;;;;;1.50;0.95;;;;;;;;;;5116642;28;20438;-86
2023/06/03 09:03:56;;;;;;;1.70;1.10;;;;;;;;;;5116377;28;20043;-90
2023/06/03 09:06:23;;;;;;;1.50;1.30;;;;;;;;;;5115990;28;20051;-86
2023/06/03 09:08:53;;;;;;;2.55;1.40;;;;;;;;;;5116096;28;20044;-87
2023/06/03 09:11:22;;;;;;;3.42;1.17;;;;;;;;;;5115759;28;20101;-87
2023/06/03 09:13:49;;;;;;;3.33;1.35;;;;;;;;;;5118848;28;20066;-88
2023/06/03 09:16:18;;;;;;;4.80;1.30;;;;;;;;;;5115791;28;20055;-90
2023/06/03 09:18:47;;;;;;;2.15;1.20;;;;;;;;;;5114277;28;20039;-91
2023/06/03 09:21:15;;;;;;;1.48;1.10;;;;;;;;;;5115506;28;20081;-88
2023/06/03 09:23:43;;;;;;;2.53;1.15;;;;;;;;;;5115608;28;20044;-87
2023/06/03 09:26:10;;;;;;;2.90;1.10;;;;;;;;;;5117406;28;20064;-88
2023/06/03 09:28:38;;;;;;;4.25;1.30;;;;;;;;;;5117400;28;20130;-88
2023/06/03 09:31:06;;;;;;;3.33;1.05;;;;;;;;;;5115377;28;20139;-90
2023/06/03 09:33:33;;;;;;;2.80;1.10;;;;;;;;;;5115394;28;20120;-85
2023/06/03 09:36:11;;;;;;;2.08;1.33;;;;;;;;;;5115478;28;20044;-88
2023/06/03 09:38:52;;;;;;;3.55;1.65;;;;;;;;;;5117403;28;20100;-88
2023/06/03 09:41:20;;;;;;;4.90;1.13;;;;;;;;;;5115811;28;20097;-86
2023/06/03 09:43:54;;;;;;;5.50;1.13;;;;;;;;;;5124001;28;20039;-91
2023/06/03 09:46:22;;;;;;;3.47;1.10;;;;;;;;;;5118721;28;20043;-86
2023/06/03 09:48:49;;;;;;;17.50;2.05;;;;;;;;;;5119211;28;20090;-85
2023/06/03 09:51:16;;;;;;;3.00;1.02;;;;;;;;;;5116617;28;20044;-86
2023/06/03 09:53:44;;;;;;;2.75;1.13;;;;;;;;;;5114847;28;20047;-87
2023/06/03 09:56:21;;;;;;;2.35;1.35;;;;;;;;;;5115002;28;20479;-89
2023/06/03 09:58:51;;;;;;;1.63;1.15;;;;;;;;;;5114820;28;20052;-87
2023/06/03 10:01:31;;;;;;;2.08;1.20;;;;;;;;;;5115475;27;20059;-88
2023/06/03 10:04:00;;;;;;;2.40;1.00;;;;;;;;;;5114849;28;20059;-86
2023/06/03 10:06:27;;;;;;;3.00;1.10;;;;;;;;;;5114891;28;20039;-90
2023/06/03 10:08:55;;;;;;;3.67;0.98;;;;;;;;;;5114507;28;20080;-87
2023/06/03 10:11:23;;;;;;;2.75;1.00;;;;;;;;;;5114768;28;20055;-90
2023/06/03 10:14:06;;;;;;;2.67;1.02;;;;;;;;;;5114946;28;20484;-93
2023/06/03 10:16:33;;;;;;;2.17;0.90;;;;;;;;;;5115378;28;20071;-88
2023/06/03 10:19:01;;;;;;;5.03;1.25;;;;;;;;;;5116425;28;20130;-92
2023/06/03 10:21:28;;;;;;;3.05;1.30;;;;;;;;;;5115212;28;20112;-87
2023/06/03 10:24:00;;;;;;;3.55;1.50;;;;;;;;;;5115532;28;20112;-87
2023/06/03 10:26:29;;;;;;;2.17;1.45;;;;;;;;;;5115489;28;20061;-87
2023/06/03 10:28:57;;;;;;;2.22;1.50;;;;;;;;;;5114379;28;20559;-88
2023/06/03 10:31:25;;;;;;;3.15;1.40;;;;;;;;;;5114047;28;20097;-89
2023/06/03 10:33:52;;;;;;;3.08;1.17;;;;;;;;;;5114667;28;20058;-88
2023/06/03 10:36:20;;;;;;;3.03;1.20;;;;;;;;;;5114800;28;20051;-89
2023/06/03 10:38:48;;;;;;;2.25;1.30;;;;;;;;;;5116031;28;20044;-91
2023/06/03 10:41:15;;;;;;;2.17;1.30;;;;;;;;;;5114916;28;20063;-93
2023/06/03 10:43:43;;;;;;;3.95;1.48;;;;;;;;;;5114991;28;20067;-90
2023/06/03 10:46:12;;;;;;;1.88;1.20;;;;;;;;;;5113020;28;20051;-89
2023/06/03 10:48:40;;;;;;;3.47;1.20;;;;;;;;;;5114130;28;20044;-89
2023/06/03 10:51:20;;;;;;;6.07;1.30;;;;;;;;;;5115175;27;20043;-89
2023/06/03 10:54:06;;;;;;;1.30;1.20;;;;;;;;;;5114933;28;20506;-91
2023/06/03 10:56:42;;;;;;;4.18;1.40;;;;;;;;;;5114306;28;20146;-90
2023/06/03 10:59:12;;;;;;;2.05;1.40;;;;;;;;;;5118217;28;20073;-86
2023/06/03 11:02:03;;;;;;;3.53;1.00;;;;;;;;;;5121918;28;20047;-89
2023/06/03 11:04:33;;;;;;;3.58;1.30;;;;;;;;;;5114147;28;20108;-87
2023/06/03 11:07:00;;;;;;;5.03;1.30;;;;;;;;;;5114249;28;20429;-87
2023/06/03 11:09:36;;;;;;;3.30;1.75;;;;;;;;;;5114407;28;20062;-93
2023/06/03 11:12:13;;;;;;;3.22;1.27;;;;;;;;;;5113647;28;20071;-86
2023/06/03 11:14:48;;;;;;;2.78;1.45;;;;;;;;;;5114003;28;20138;-87
2023/06/03 11:17:18;;;;;;;6.07;1.60;;;;;;;;;;5114618;28;20048;-88
2023/06/03 11:19:45;;;;;;;2.63;1.13;;;;;;;;;;5114139;28;20054;-92
2023/06/03 11:22:14;;;;;;;2.97;1.40;;;;;;;;;;5113769;28;20463;-87
2023/06/03 11:24:44;;;;;;;5.78;1.30;;;;;;;;;;5114420;28;20075;-88
2023/06/03 11:27:14;;;;;;;2.40;1.15;;;;;;;;;;5113511;28;20124;-90
2023/06/03 11:29:45;;;;;;;12.80;1.70;;;;;;;;;;5113435;28;20464;-88
2023/06/03 11:32:13;;;;;;;3.10;1.20;;;;;;;;;;5112828;28;20058;-89
2023/06/03 11:34:40;;;;;;;29.17;2.80;;;;;;;;;;5114331;28;20051;-88
2023/06/03 11:37:19;;;;;;;1.77;1.20;;;;;;;;;;5112866;28;20078;-87
2023/06/03 11:39:59;;;;;;;8.07;1.92;;;;;;;;;;5113553;28;20058;-87
2023/06/03 11:42:27;;;;;;;6.45;1.67;;;;;;;;;;5115098;28;20067;-89
2023/06/03 11:45:14;;;;;;;3.30;1.13;;;;;;;;;;5113393;28;20567;-91
2023/06/03 11:47:47;;;;;;;1.48;0.90;;;;;;;;;;5112962;28;20105;-90
2023/06/03 11:50:15;;;;;;;2.65;1.30;;;;;;;;;;5112903;28;20085;-92
2023/06/03 11:52:42;;;;;;;3.28;1.40;;;;;;;;;;5112966;28;20071;-88
2023/06/03 11:55:09;;;;;;;4.03;1.23;;;;;;;;;;5113412;28;20051;-88
2023/06/03 11:57:37;;;;;;;8.00;1.30;;;;;;;;;;5113118;28;20322;-94
2023/06/03 12:00:07;;;;;;;1.75;1.13;;;;;;;;;;5113098;28;20055;-90
2023/06/03 12:02:37;;;;;;;3.72;1.30;;;;;;;;;;5112924;28;20051;-90
2023/06/03 12:05:05;;;;;;;4.55;1.02;;;;;;;;;;5112929;28;20052;-86
2023/06/03 12:07:33;;;;;;;6.68;1.17;;;;;;;;;;5112924;28;20055;-87
2023/06/03 12:10:00;;;;;;;2.92;1.13;;;;;;;;;;5113562;28;20100;-89
2023/06/03 12:12:28;;;;;;;2.00;1.10;;;;;;;;;;5112398;28;20409;-92
2023/06/03 12:14:57;;;;;;;1.58;0.95;;;;;;;;;;5115969;28;20116;-91
2023/06/03 12:17:26;;;;;;;2.83;0.98;;;;;;;;;;5123961;28;20058;-89
2023/06/03 12:19:54;;;;;;;3.55;1.13;;;;;;;;;;5113587;28;20039;-85
2023/06/03 12:22:26;;;;;;;1.95;0.90;;;;;;;;;;5112982;28;20044;-90
2023/06/03 12:24:54;;;;;;;1.20;1.10;;;;;;;;;;5112540;28;20055;-86
2023/06/03 12:27:22;;;;;;;3.10;1.10;;;;;;;;;;5113218;28;20048;-90
2023/06/03 12:29:56;;;;;;;1.55;1.13;;;;;;;;;;5114948;28;20051;-89
2023/06/03 12:32:29;;;;;;;1.45;0.90;;;;;;;;;;5112185;28;20437;-91
2023/06/03 12:34:57;;;;;;;1.92;0.70;;;;;;;;;;5113174;28;20051;-86
2023/06/03 12:37:33;;;;;;;2.63;0.88;;;;;;;;;;5112616;28;20093;-87
2023/06/03 12:40:02;;;;;;;10.05;1.40;;;;;;;;;;5113555;28;20059;-92
2023/06/03 12:42:37;;;;;;;5.90;0.90;;;;;;;;;;5113380;28;20110;-85
2023/06/03 12:45:05;;;;;;;2.33;1.05;;;;;;;;;;5114113;28;20051;-87
2023/06/03 12:47:46;;;;;;;2.60;0.88;;;;;;;;;;5112444;28;20507;-86
2023/06/03 12:50:16;;;;;;;2.25;0.70;;;;;;;;;;5112352;28;20082;-87
2023/06/03 12:52:43;;;;;;;3.10;1.00;;;;;;;;;;5114345;28;20073;-90
2023/06/03 12:55:13;;;;;;;1.20;1.10;;;;;;;;;;5117154;28;20522;-89
2023/06/03 12:57:41;;;;;;;4.10;1.27;;;;;;;;;;5116724;28;20059;-92
2023/06/03 13:00:11;;;;;;;0.93;0.60;;;;;;;;;;5116026;28;20048;-86
2023/06/03 13:02:39;;;;;;;2.45;1.08;;;;;;;;;;5115846;28;20067;-88
2023/06/03 13:05:07;;;;;;;0.80;0.77;;;;;;;;;;5118871;28;20043;-91
2023/06/03 13:07:35;;;;;;;4.60;1.45;;;;;;;;;;5116929;28;20051;-86
2023/06/03 13:10:03;;;;;;;3.92;0.75;;;;;;;;;;5116705;28;20039;-91
2023/06/03 13:12:31;;;;;;;0.70;0.60;;;;;;;;;;5116157;28;20055;-88
2023/06/03 13:14:59;;;;;;;3.53;1.63;;;;;;;;;;5117487;28;20051;-88
2023/06/03 13:17:26;;;;;;;1.88;0.90;;;;;;;;;;5116381;28;20056;-92
2023/06/03 13:19:54;;;;;;;4.03;0.80;;;;;;;;;;5116257;28;20044;-88
2023/06/03 13:22:26;;;;;;;2.13;1.00;;;;;;;;;;5115989;28;20044;-93
2023/06/03 13:24:53;;;;;;;2.05;0.88;;;;;;;;;;5116546;28;20051;-88
2023/06/03 13:27:21;;;;;;;5.15;1.05;;;;;;;;;;5116538;28;20055;-86
2023/06/03 13:29:48;;;;;;;2.67;0.68;;;;;;;;;;5117398;28;20463;-92
2023/06/03 13:32:23;;;;;;;2.08;1.13;;;;;;;;;;5130487;27;20051;-93
2023/06/03 13:34:53;;;;;;;0.60;0.60;;;;;;;;;;5125142;28;20130;-92
2023/06/03 13:37:21;;;;;;;6.30;1.05;;;;;;;;;;5115256;28;20051;-89
2023/06/03 13:39:48;;;;;;;3.63;0.95;;;;;;;;;;5116180;28;20082;-93
2023/06/03 13:42:15;;;;;;;3.55;0.90;;;;;;;;;;5116610;28;20055;-90
2023/06/03 13:44:43;;;;;;;2.22;1.08;;;;;;;;;;5116612;28;20078;-94
2023/06/03 13:47:10;;;;;;;2.10;0.88;;;;;;;;;;5115241;28;20139;-89
2023/06/03 13:49:37;;;;;;;3.92;1.00;;;;;;;;;;5114925;28;20078;-90
2023/06/03 13:52:05;;;;;;;6.85;1.10;;;;;;;;;;5116167;28;20048;-92
2023/06/03 13:54:34;;;;;;;3.15;1.25;;;;;;;;;;5118805;28;20507;-90
2023/06/03 13:57:01;;;;;;;4.53;1.00;;;;;;;;;;5125172;28;20047;-89
2023/06/03 13:59:30;;;;;;;2.55;0.82;;;;;;;;;;5114976;28;20097;-89
2023/06/03 14:01:58;;;;;;;0.80;0.80;;;;;;;;;;5115200;28;20075;-91
2023/06/03 14:04:25;;;;;;;3.15;1.10;;;;;;;;;;5114649;28;20075;-89
2023/06/03 14:06:54;;;;;;;2.03;0.73;;;;;;;;;;5114809;28;20457;-89
2023/06/03 14:09:21;;;;;;;1.75;1.15;;;;;;;;;;5115537;28;20059;-93
2023/06/03 14:11:50;;;;;;;0.80;0.80;;;;;;;;;;5114834;28;20557;-89
2023/06/03 14:14:18;;;;;;;2.30;0.77;;;;;;;;;;5114939;28;20130;-87
2023/06/03 14:16:45;;;;;;;1.92;1.00;;;;;;;;;;5114732;28;20058;-87
2023/06/03 14:19:13;;;;;;;2.10;1.15;;;;;;;;;;5115411;28;20043;-89
2023/06/03 14:21:40;;;;;;;4.30;1.10;;;;;;;;;;5115398;28;20063;-90
2023/06/03 14:24:08;;;;;;;2.38;0.82;;;;;;;;;;5114774;28;20048;-86
2023/06/03 14:26:35;;;;;;;3.55;1.05;;;;;;;;;;5114832;28;20051;-87
2023/06/03 14:29:10;;;;;;;1.30;0.88;;;;;;;;;;5115496;28;20069;-91
2023/06/03 14:31:38;;;;;;;4.25;1.15;;;;;;;;;;5114680;28;20055;-91
2023/06/03 14:34:05;;;;;;;4.28;0.90;;;;;;;;;;5115455;28;20047;-87
2023/06/03 14:36:33;;;;;;;3.45;0.98;;;;;;;;;;5114603;28;20048;-87
2023/06/03 14:39:01;;;;;;;2.20;0.95;;;;;;;;;;5114537;28;20074;-89
2023/06/03 14:41:29;;;;;;;1.75;0.65;;;;;;;;;;5114616;28;20092;-85
2023/06/03 14:43:57;;;;;;;5.57;1.20;;;;;;;;;;5114393;28;20098;-90
2023/06/03 14:46:24;;;;;;;3.67;1.15;;;;;;;;;;5115398;28;20086;-90
2023/06/03 14:48:52;;;;;;;12.50;1.70;;;;;;;;;;5129452;28;20052;-89
2023/06/03 14:51:21;;;;;;;2.20;1.20;;;;;;;;;;5117415;28;20051;-89